Terminal Aerodrome Forecast
Issued by NWS

Home | Current Version | Previous Version | Text Only | Print | Product List | Glossary On
Versions: 1 2 3 4 5 6 7 8 9 10 11 12 13 14 15 16 17 18 19 20 21 22 23 24 25
999
FTUS43 KDLH 172155 AAA
TAFHYR
TAF AMD
KHYR 172155Z 1722/1818 20004KT 3SM -SNRA BR OVC010
      TEMPO 1722/1724 2SM -SN BR OVC008
     FM180000 VRB04KT 3SM BR VCSH OVC007
     FM180600 35005KT 5SM BR OVC003
     FM181200 34007KT P6SM BKN010 BKN060
     FM181600 33010G16KT P6SM SCT010 BKN060=

USA.gov is the U.S. government's official web portal to all federal, state and local government web resources and services.